Time;durP1;ratioP1;P1;durP2;ratioP2;P2;SDS_P1;SDS_P2;PMS_P1;PMS_P2;Temp;Humidity;BMP_temperature;BMP_pressure;BME280_temperature;BME280_humidity;BME280_pressure;Samples;Min_cycle;Max_cycle;Signal;HPM_P1;HPM_P2
2022/08/20 00:00:48;;;;;;;24.25;7.70;;;;;;;22.97;71.37;98633.64;2190516;81;20924;-83
2022/08/20 00:03:48;;;;;;;11.68;6.25;;;;;;;22.88;71.75;98624.24;2190516;81;21385;-82
2022/08/20 00:06:49;;;;;;;16.17;6.05;;;;;;;22.80;73.28;98632.14;2190725;81;20967;-83
2022/08/20 00:09:49;;;;;;;15.35;5.60;;;;;;;22.67;73.76;98613.12;2190530;81;20928;-83
2022/08/20 00:12:49;;;;;;;15.80;6.45;;;;;;;22.48;75.16;98596.13;2190365;81;20944;-83
2022/08/20 00:15:50;;;;;;;10.58;6.05;;;;;;;22.35;76.37;98592.23;2190379;81;20968;-83
2022/08/20 00:18:50;;;;;;;15.65;6.78;;;;;;;22.24;76.31;98586.88;2190723;81;20965;-83
2022/08/20 00:21:51;;;;;;;12.15;7.47;;;;;;;22.13;77.03;98573.14;2190611;81;21364;-83
2022/08/20 00:24:51;;;;;;;16.40;7.35;;;;;;;22.06;77.55;98568.98;2191450;81;20968;-82
2022/08/20 00:27:51;;;;;;;13.58;7.10;;;;;;;21.98;77.71;98577.69;2191638;81;20976;-83
2022/08/20 00:30:52;;;;;;;15.25;6.15;;;;;;;21.98;78.46;98575.48;2191361;81;20936;-82
2022/08/20 00:33:52;;;;;;;15.58;6.33;;;;;;;21.90;77.69;98573.13;2191372;81;20917;-83
2022/08/20 00:36:53;;;;;;;12.20;5.40;;;;;;;21.86;77.79;98578.16;2191517;81;20920;-82
2022/08/20 00:39:53;;;;;;;11.22;5.67;;;;;;;21.80;77.51;98565.97;2190840;81;20964;-83
2022/08/20 00:42:56;;;;;;;13.48;6.25;;;;;;;21.75;77.53;98553.78;2191175;81;20936;-83
2022/08/20 00:45:56;;;;;;;13.60;5.45;;;;;;;21.65;77.46;98549.70;2191057;81;20976;-83
2022/08/20 00:48:55;;;;;;;16.20;5.90;;;;;;;21.57;77.47;98534.92;2190621;81;20944;-82
2022/08/20 00:51:56;;;;;;;10.32;5.40;;;;;;;21.62;78.35;98531.63;2191798;81;21027;-83
2022/08/20 00:54:55;;;;;;;13.95;4.90;;;;;;;21.75;77.59;98523.23;2192659;81;21008;-83
2022/08/20 00:57:56;;;;;;;10.75;5.20;;;;;;;21.86;77.12;98538.30;2192590;81;20974;-82
2022/08/20 01:00:57;;;;;;;12.47;5.30;;;;;;;21.86;77.06;98547.59;2192614;81;21343;-82
2022/08/20 01:03:57;;;;;;;10.30;4.80;;;;;;;22.18;77.75;98548.57;2192755;81;20948;-83
2022/08/20 01:06:57;;;;;;;10.72;5.30;;;;;;;22.61;77.28;98552.64;2192304;81;20980;-83
2022/08/20 01:09:57;;;;;;;8.13;4.90;;;;;;;22.81;74.78;98534.09;2191956;81;20931;-83
2022/08/20 01:12:58;;;;;;;16.30;6.03;;;;;;;22.66;74.26;98528.91;2192899;81;20928;-83
2022/08/20 01:15:58;;;;;;;10.13;4.53;;;;;;;22.99;75.47;98531.97;2193115;81;20928;-83
2022/08/20 01:18:59;;;;;;;15.85;5.78;;;;;;;23.36;73.99;98547.19;2192530;81;20921;-83
2022/08/20 01:21:59;;;;;;;13.25;5.50;;;;;;;23.65;73.05;98562.39;2182696;81;21000;-83
2022/08/20 01:24:59;;;;;;;17.52;5.53;;;;;;;23.87;71.96;98592.46;2175756;81;20937;-84
2022/08/20 01:28:00;;;;;;;21.30;5.80;;;;;;;23.90;71.66;98605.64;2175922;81;20973;-84
2022/08/20 01:31:00;;;;;;;33.23;9.50;;;;;;;24.03;71.37;98633.47;2176243;81;20933;-81
2022/08/20 01:34:01;;;;;;;18.30;6.30;;;;;;;23.65;74.26;98630.34;2175858;81;20934;-81
2022/08/20 01:37:01;;;;;;;37.23;9.18;;;;;;;23.08;74.09;98604.77;2175021;81;20889;-82
2022/08/20 01:40:01;;;;;;;32.17;12.33;;;;;;;22.65;75.87;98573.73;2174095;81;20972;-80
2022/08/20 01:43:04;;;;;;;29.52;14.55;;;;;;;22.20;78.53;98552.50;2174560;81;20933;-80
2022/08/20 01:46:02;;;;;;;21.80;13.95;;;;;;;21.91;79.29;98539.85;2175537;81;21361;-82
2022/08/20 01:49:03;;;;;;;28.52;13.88;;;;;;;21.65;83.67;98524.02;2176011;81;20932;-81
2022/08/20 01:52:03;;;;;;;22.93;9.18;;;;;;;21.39;83.42;98521.00;2175994;81;20992;-80
2022/08/20 01:55:03;;;;;;;28.55;13.18;;;;;;;21.19;83.39;98520.83;2176151;81;20933;-80
2022/08/20 01:58:04;;;;;;;23.55;11.28;;;;;;;21.08;84.32;98529.64;2176265;81;20952;-80
2022/08/20 02:01:04;;;;;;;32.45;11.78;;;;;;;20.97;85.19;98520.27;2175370;81;20925;-80
2022/08/20 02:04:05;;;;;;;25.60;10.90;;;;;;;20.84;87.17;98492.90;2175309;82;20964;-80
2022/08/20 02:07:05;;;;;;;17.87;7.33;;;;;;;20.70;87.07;98478.76;2175084;81;21047;-81
2022/08/20 02:10:05;;;;;;;20.97;7.95;;;;;;;20.58;89.62;98468.58;2175204;81;20996;-81
2022/08/20 02:13:08;;;;;;;17.77;7.30;;;;;;;20.46;89.20;98467.67;2175138;81;20957;-81
2022/08/20 02:16:06;;;;;;;13.80;6.83;;;;;;;20.38;88.40;98465.24;2175236;81;20968;-81
2022/08/20 02:19:08;;;;;;;20.92;6.70;;;;;;;20.38;88.87;98456.42;2175409;81;20941;-81
2022/08/20 02:22:07;;;;;;;14.28;6.70;;;;;;;20.34;89.23;98444.60;2184533;81;21060;-81
2022/08/20 02:25:07;;;;;;;14.65;6.87;;;;;;;20.37;89.64;98447.61;2191601;81;20964;-80
2022/08/20 02:28:08;;;;;;;17.60;7.37;;;;;;;20.28;89.54;98443.48;2191790;81;21003;-81
2022/08/20 02:31:08;;;;;;;19.45;7.00;;;;;;;20.25;90.21;98447.56;2191702;81;20948;-80
2022/08/20 02:34:09;;;;;;;17.23;7.50;;;;;;;20.22;90.03;98450.31;2191730;81;20937;-81
2022/08/20 02:37:09;;;;;;;19.77;7.55;;;;;;;20.24;91.32;98442.31;2191708;81;21355;-81
2022/08/20 02:40:09;;;;;;;23.25;7.90;;;;;;;20.25;91.62;98452.86;2191468;81;20937;-80
2022/08/20 02:43:11;;;;;;;19.70;7.90;;;;;;;20.23;92.41;98457.80;2191506;81;20976;-80
2022/08/20 02:46:10;;;;;;;17.92;8.20;;;;;;;20.19;92.10;98460.14;2190867;81;20949;-81
2022/08/20 02:49:11;;;;;;;18.02;8.43;;;;;;;20.16;92.46;98454.48;2191190;81;20932;-80
2022/08/20 02:52:11;;;;;;;15.78;7.92;;;;;;;20.13;92.19;98455.05;2190887;81;20976;-81
2022/08/20 02:55:11;;;;;;;18.82;7.70;;;;;;;20.11;92.71;98457.75;2191128;81;20908;-81
2022/08/20 02:58:12;;;;;;;17.12;8.08;;;;;;;20.06;92.21;98451.73;2191084;81;20980;-81
2022/08/20 03:01:12;;;;;;;15.60;7.72;;;;;;;20.00;92.17;98452.80;2190957;81;20956;-81
2022/08/20 03:04:13;;;;;;;14.58;8.48;;;;;;;19.99;92.05;98448.88;2190997;81;20967;-80
2022/08/20 03:07:13;;;;;;;17.23;8.08;;;;;;;19.98;92.57;98453.30;2191252;81;21335;-80
2022/08/20 03:10:13;;;;;;;13.80;8.53;;;;;;;19.93;92.18;98445.06;2191370;81;20917;-80
2022/08/20 03:13:14;;;;;;;11.80;7.70;;;;;;;19.85;92.54;98445.77;2191163;81;20920;-80
2022/08/20 03:16:14;;;;;;;14.87;7.95;;;;;;;19.73;92.18;98457.16;2191368;81;20897;-80
2022/08/20 03:19:15;;;;;;;15.85;7.72;;;;;;;19.69;93.13;98466.56;2191283;81;20920;-81
2022/08/20 03:22:15;;;;;;;13.85;8.10;;;;;;;19.63;92.88;98464.11;2190886;81;21039;-81
2022/08/20 03:25:15;;;;;;;13.50;7.40;;;;;;;19.60;93.06;98459.77;2191092;81;21390;-81
2022/08/20 03:28:19;;;;;;;14.20;8.13;;;;;;;19.62;93.05;98464.56;2191339;81;21015;-81
2022/08/20 03:31:19;;;;;;;16.15;8.05;;;;;;;19.63;93.22;98466.75;2191813;81;20945;-81
2022/08/20 03:34:19;;;;;;;11.85;7.30;;;;;;;19.58;92.85;98469.54;2191755;81;21347;-81
2022/08/20 03:37:24;;;;;;;12.03;7.17;;;;;;;19.50;92.51;98464.03;2191996;81;21000;-81
2022/08/20 03:40:23;;;;;;;15.45;8.50;;;;;;;19.46;93.28;98463.26;2191669;81;20971;-81
2022/08/20 03:43:24;;;;;;;18.62;8.53;;;;;;;19.51;94.17;98467.09;2192032;81;20937;-82
2022/08/20 03:46:26;;;;;;;16.15;7.75;;;;;;;20.00;97.44;98463.39;2192135;81;21328;-83
2022/08/20 03:49:26;;;;;;;18.85;8.15;;;;;;;20.48;97.12;98465.83;2192022;81;21022;-82
2022/08/20 03:52:28;;;;;;;13.68;7.40;;;;;;;21.10;93.67;98476.91;2192280;81;21000;-83
2022/08/20 03:55:27;;;;;;;13.68;8.00;;;;;;;21.58;91.31;98476.91;2191928;81;20929;-82
2022/08/20 03:58:28;;;;;;;13.20;7.00;;;;;;;21.57;87.86;98475.63;2192285;81;20955;-83
2022/08/20 04:01:28;;;;;;;14.40;8.35;;;;;;;21.73;88.47;98482.58;2192427;81;20945;-82
2022/08/20 04:04:28;;;;;;;13.15;7.30;;;;;;;22.03;86.63;98471.23;2191899;81;20920;-82
2022/08/20 04:07:29;;;;;;;46.28;9.65;;;;;;;21.96;84.19;98475.03;2190527;81;21026;-82
2022/08/20 04:10:29;;;;;;;20.10;7.70;;;;;;;21.78;83.98;98472.64;2190445;81;21424;-82
2022/08/20 04:13:30;;;;;;;8.93;6.65;;;;;;;21.85;85.52;98470.14;2190613;81;21008;-82
2022/08/20 04:16:31;;;;;;;13.13;7.28;;;;;;;22.21;84.86;98464.70;2190652;81;20963;-82
2022/08/20 04:19:30;;;;;;;9.75;7.33;;;;;;;22.30;83.79;98467.91;2190647;81;21383;-82
2022/08/20 04:22:31;;;;;;;82.42;10.72;;;;;;;22.50;83.03;98463.49;2181406;81;21024;-81
2022/08/20 04:25:31;;;;;;;15.15;7.83;;;;;;;22.55;82.40;98469.98;2174146;81;20972;-82
2022/08/20 04:28:32;;;;;;;13.43;7.65;;;;;;;22.56;81.46;98463.73;2174112;81;21000;-82
2022/08/20 05:37:48;;;;;;;19.25;9.05;;;;;;;24.21;79.58;98449.55;2225611;80;22566;-84
2022/08/20 05:40:47;;;;;;;17.80;8.95;;;;;;;24.34;79.05;98462.73;2231683;80;20981;-83
2022/08/20 05:43:48;;;;;;;19.30;12.28;;;;;;;24.44;78.41;98462.19;2198679;81;20943;-83
2022/08/20 05:46:49;;;;;;;16.85;9.90;;;;;;;24.36;77.74;98451.52;2199087;81;20995;-82
2022/08/20 05:49:49;;;;;;;15.50;9.40;;;;;;;24.23;77.67;98445.00;2198808;81;20999;-82
2022/08/20 05:52:49;;;;;;;16.15;9.75;;;;;;;23.97;77.78;98437.81;2198117;81;20935;-84
2022/08/20 05:55:50;;;;;;;14.70;9.33;;;;;;;23.84;77.76;98428.69;2197470;81;21391;-83
2022/08/20 05:58:50;;;;;;;22.82;11.43;;;;;;;23.84;78.01;98426.02;2196762;81;21342;-84
2022/08/20 06:01:50;;;;;;;20.55;11.63;;;;;;;23.80;71.92;98427.11;2196355;81;20982;-81
2022/08/20 06:04:51;;;;;;;15.32;8.78;;;;;;;23.71;65.00;98428.88;2196861;81;21035;-83
2022/08/20 06:07:51;;;;;;;19.95;9.93;;;;;;;23.70;68.79;98434.68;2196668;81;20935;-83
2022/08/20 06:10:52;;;;;;;18.27;8.58;;;;;;;23.56;63.02;98438.47;2196787;81;20946;-83
2022/08/20 06:13:53;;;;;;;25.40;9.15;;;;;;;23.59;67.91;98430.80;2195770;81;20959;-82
2022/08/20 06:16:53;;;;;;;19.15;8.98;;;;;;;23.75;63.17;98434.45;2196025;81;20924;-83
2022/08/20 06:19:54;;;;;;;14.38;8.95;;;;;;;24.10;67.97;98430.94;2196830;81;20939;-84
2022/08/20 06:22:54;;;;;;;17.92;9.08;;;;;;;24.37;65.00;98430.56;2196932;81;20967;-83
2022/08/20 06:25:55;;;;;;;14.60;8.88;;;;;;;24.63;66.17;98427.43;2197038;81;21030;-82
2022/08/20 06:28:55;;;;;;;16.50;9.23;;;;;;;24.97;65.16;98421.66;2197801;81;21390;-82
2022/08/20 06:31:55;;;;;;;25.92;13.75;;;;;;;25.17;66.33;98422.00;2198029;81;20963;-84
2022/08/20 06:34:56;;;;;;;17.60;10.48;;;;;;;25.43;66.51;98415.23;2198553;81;21011;-82
2022/08/20 06:37:59;;;;;;;23.65;9.80;;;;;;;25.69;67.72;98424.03;2197916;81;21011;-82
2022/08/20 06:40:57;;;;;;;30.23;9.70;;;;;;;25.95;67.58;98420.75;2197871;81;20967;-82
2022/08/20 06:43:58;;;;;;;15.13;8.88;;;;;;;26.19;67.35;98425.66;2196354;81;21131;-83
2022/08/20 06:46:57;;;;;;;15.55;8.28;;;;;;;26.41;67.13;98427.50;2196561;81;20987;-81
2022/08/20 06:49:58;;;;;;;13.38;8.18;;;;;;;26.63;66.89;98432.44;2196763;81;21705;-82
2022/08/20 06:52:58;;;;;;;15.18;8.25;;;;;;;26.62;66.93;98438.27;2196621;81;20983;-83
2022/08/20 06:55:59;;;;;;;14.47;8.70;;;;;;;26.45;68.08;98441.56;2196241;81;21027;-82
2022/08/20 06:58:59;;;;;;;15.63;8.63;;;;;;;26.46;67.55;98449.97;2196947;81;21022;-81
2022/08/20 07:02:00;;;;;;;16.37;7.53;;;;;;;26.76;67.00;98449.49;2197297;81;20967;-82
2022/08/20 07:05:00;;;;;;;12.58;7.03;;;;;;;27.05;66.23;98446.92;2197297;81;20967;-82
2022/08/20 07:08:00;;;;;;;10.13;7.72;;;;;;;27.37;66.48;98440.43;2196960;81;20959;-82
2022/08/20 07:11:01;;;;;;;13.13;8.00;;;;;;;27.56;64.98;98450.38;2196640;81;20975;-83
2022/08/20 07:14:04;;;;;;;12.00;7.62;;;;;;;27.88;63.79;98455.08;2197246;81;20956;-83
2022/08/20 07:17:05;;;;;;;16.37;7.03;;;;;;;27.88;63.39;98457.76;2197154;81;20962;-82
2022/08/20 07:20:05;;;;;;;53.05;41.73;;;;;;;27.93;63.89;98459.28;2197061;81;20959;-82
2022/08/20 07:23:06;;;;;;;14.93;11.73;;;;;;;28.01;63.36;98452.46;2196962;81;20947;-82
2022/08/20 07:26:07;;;;;;;14.68;8.35;;;;;;;28.36;62.56;98457.36;2198004;81;21333;-82
2022/08/20 07:29:09;;;;;;;11.68;7.37;;;;;;;28.30;60.55;98463.99;2198330;81;21000;-82
2022/08/20 07:35:29;;;;;;;17.37;7.28;;;;;;;28.12;61.31;98457.98;2232414;80;21063;-83
2022/08/20 07:38:29;;;;;;;14.80;8.23;;;;;;;28.49;61.16;98455.09;2232970;80;21390;-83
2022/08/20 07:41:29;;;;;;;20.27;9.45;;;;;;;28.73;60.41;98463.83;2232838;80;20939;-84
2022/08/20 07:44:30;;;;;;;17.90;9.10;;;;;;;28.95;58.68;98458.73;2232606;80;20982;-84
2022/08/20 07:47:33;;;;;;;11.28;8.00;;;;;;;29.06;58.57;98457.99;2232117;80;20975;-82
2022/08/20 07:50:31;;;;;;;12.55;8.43;;;;;;;29.16;56.78;98454.55;2232571;80;20978;-83
2022/08/20 07:53:32;;;;;;;16.02;8.70;;;;;;;29.00;54.04;98459.77;2232125;80;20962;-82
2022/08/20 07:56:31;;;;;;;17.65;9.73;;;;;;;28.82;57.64;98460.52;2232348;80;20982;-82
2022/08/20 07:59:32;;;;;;;12.47;8.70;;;;;;;28.83;58.01;98460.44;2232249;80;20997;-82
2022/08/20 08:02:32;;;;;;;12.20;8.18;;;;;;;29.01;56.73;98455.63;2231444;80;20951;-80
2022/08/20 08:05:33;;;;;;;12.60;8.90;;;;;;;29.24;54.26;98454.02;2231367;80;20998;-82
2022/08/20 08:08:33;;;;;;;14.25;8.75;;;;;;;29.43;55.15;98459.84;2231396;80;20959;-81
2022/08/20 08:11:33;;;;;;;12.07;8.83;;;;;;;29.59;54.07;98466.37;2231980;80;20948;-82
2022/08/20 08:14:34;;;;;;;13.28;8.93;;;;;;;29.72;53.14;98464.52;2230764;80;20959;-82
2022/08/20 08:17:35;;;;;;;24.90;8.83;;;;;;;29.79;54.86;98457.72;2231289;80;20935;-81
2022/08/20 08:20:37;;;;;;;17.82;9.00;;;;;;;29.78;52.70;98451.10;2230848;80;20918;-82
2022/08/20 08:23:35;;;;;;;20.70;8.30;;;;;;;29.93;52.45;98451.81;2230685;80;20932;-82
2022/08/20 08:26:36;;;;;;;33.38;24.52;;;;;;;30.00;54.01;98446.36;2230394;80;21407;-82
2022/08/20 08:29:36;;;;;;;24.10;13.55;;;;;;;30.07;53.57;98446.31;2230128;80;20951;-83
2022/08/20 08:33:26;;;;;;;17.67;10.08;;;;;;;30.27;52.67;98439.45;2229618;80;20966;-83
2022/08/20 08:35:37;;;;;;;10.53;8.93;;;;;;;30.51;53.61;98432.73;2230282;80;20994;-84
2022/08/20 08:38:37;;;;;;;16.23;9.10;;;;;;;30.51;53.61;98432.73;2231063;80;20924;-84
2022/08/20 08:41:38;;;;;;;17.12;9.23;;;;;;;30.70;53.18;98433.07;2231268;80;20970;-83
2022/08/20 08:44:38;;;;;;;11.70;9.08;;;;;;;30.84;53.66;98438.74;2230667;80;20942;-83
2022/08/20 08:47:40;;;;;;;18.77;9.23;;;;;;;30.87;52.93;98440.72;2230588;80;20971;-83
2022/08/20 08:50:41;;;;;;;13.85;9.68;;;;;;;30.80;52.31;98439.47;2230934;80;21537;-83
2022/08/20 08:53:40;;;;;;;15.48;8.78;;;;;;;30.71;52.06;98434.30;2230644;80;20920;-82
2022/08/20 08:56:40;;;;;;;169.65;19.15;;;;;;;30.81;51.79;98432.24;2230466;80;20967;-80
2022/08/20 08:59:40;;;;;;;20.05;9.33;;;;;;;30.87;51.90;98431.77;2230839;80;20971;-83
2022/08/20 09:02:41;;;;;;;17.60;8.80;;;;;;;30.42;46.41;98427.06;2230457;80;20986;-83
2022/08/20 09:05:42;;;;;;;19.10;8.60;;;;;;;29.62;45.29;98423.12;2229851;80;21007;-83
2022/08/20 09:08:41;;;;;;;13.93;8.55;;;;;;;29.55;44.20;98427.22;2229940;80;20951;-82
2022/08/20 09:11:42;;;;;;;16.32;9.10;;;;;;;29.51;44.40;98426.20;2230255;80;20927;-82
2022/08/20 09:14:42;;;;;;;13.50;8.33;;;;;;;29.61;45.73;98431.30;2230464;80;20987;-83
2022/08/20 09:17:42;;;;;;;15.50;8.98;;;;;;;29.41;44.48;98417.88;2230536;80;21382;-83
2022/08/20 09:20:43;;;;;;;15.08;8.55;;;;;;;29.02;39.70;98412.15;2230430;80;21037;-82
2022/08/20 09:23:43;;;;;;;16.82;9.53;;;;;;;28.76;41.86;98420.16;2230448;80;21014;-82
2022/08/20 09:26:44;;;;;;;17.37;9.90;;;;;;;29.14;51.28;98413.98;2229945;80;21010;-82
2022/08/20 09:29:44;;;;;;;14.33;9.00;;;;;;;29.67;50.57;98419.61;2229977;80;21039;-83
2022/08/20 09:32:44;;;;;;;18.30;9.75;;;;;;;29.96;51.51;98413.92;2230918;80;20940;-83
2022/08/20 09:35:45;;;;;;;13.48;9.35;;;;;;;30.23;52.05;98421.31;2230919;80;21362;-82
2022/08/20 09:38:45;;;;;;;17.45;9.85;;;;;;;30.34;50.62;98429.45;2230347;80;20970;-81
2022/08/20 09:41:46;;;;;;;16.62;9.13;;;;;;;30.64;50.06;98424.12;2229508;80;20987;-82
2022/08/20 09:44:46;;;;;;;13.95;9.03;;;;;;;30.73;49.34;98418.88;2229057;80;21002;-82
2022/08/20 09:47:47;;;;;;;10.30;8.10;;;;;;;30.91;48.90;98424.67;2228276;80;20908;-82
2022/08/20 09:50:47;;;;;;;29.67;24.27;;;;;;;31.19;48.67;98422.55;2229135;80;21780;-83
2022/08/20 09:53:47;;;;;;;16.30;14.55;;;;;;;31.41;49.18;98428.47;2229635;80;21661;-82
2022/08/20 09:56:48;;;;;;;16.87;9.95;;;;;;;31.56;48.38;98426.75;2229512;80;21025;-82
2022/08/20 09:59:48;;;;;;;16.75;9.40;;;;;;;31.35;47.71;98427.12;2230291;80;20962;-81
2022/08/20 10:02:49;;;;;;;10.55;8.28;;;;;;;31.29;44.55;98424.91;2231569;80;21329;-82
2022/08/20 10:05:49;;;;;;;14.58;8.10;;;;;;;31.08;47.47;98417.97;2231245;80;21014;-82
2022/08/20 10:08:49;;;;;;;11.95;7.62;;;;;;;30.85;45.45;98417.07;2231365;80;20975;-85
2022/08/20 10:11:50;;;;;;;103.30;80.83;;;;;;;30.81;46.90;98418.28;2231396;80;21022;-83
2022/08/20 10:14:50;;;;;;;15.03;8.53;;;;;;;30.90;47.35;98417.57;2230582;80;20943;-83
2022/08/20 10:17:51;;;;;;;15.15;8.55;;;;;;;30.93;46.91;98422.72;2230455;80;20987;-82
2022/08/20 10:20:51;;;;;;;19.35;8.40;;;;;;;31.21;47.27;98414.73;2230281;80;20963;-82
2022/08/20 10:23:51;;;;;;;12.85;8.63;;;;;;;31.46;46.06;98416.83;2230277;80;20935;-83
2022/08/20 10:26:52;;;;;;;14.38;8.40;;;;;;;31.65;46.34;98414.36;2228818;80;21010;-82
2022/08/20 10:29:52;;;;;;;12.15;7.45;;;;;;;31.95;46.01;98409.19;2229034;80;20939;-82
2022/08/20 10:32:53;;;;;;;17.90;10.68;;;;;;;32.14;44.80;98405.85;2229643;80;20972;-82
2022/08/20 10:35:53;;;;;;;16.90;9.90;;;;;;;32.10;42.50;98408.44;2230487;80;21007;-83
2022/08/20 10:38:54;;;;;;;11.55;7.62;;;;;;;31.71;42.67;98404.94;2228096;78;20959;-82
2022/08/20 10:41:54;;;;;;;11.50;8.40;;;;;;;31.50;44.46;98399.41;2228860;80;21017;-83
2022/08/20 10:44:55;;;;;;;13.90;8.03;;;;;;;31.48;44.61;98405.42;2228397;80;21050;-82
2022/08/20 10:47:55;;;;;;;11.22;7.70;;;;;;;31.58;44.93;98401.86;2228504;80;20936;-83
2022/08/20 10:50:55;;;;;;;12.28;7.65;;;;;;;31.18;43.77;98408.70;2228323;80;20939;-83
2022/08/20 10:53:56;;;;;;;11.85;7.90;;;;;;;31.03;44.38;98411.59;2228405;80;20943;-82
2022/08/20 10:56:56;;;;;;;11.83;7.15;;;;;;;31.13;43.47;98412.21;2229125;80;20959;-83
2022/08/20 10:59:56;;;;;;;11.63;8.20;;;;;;;31.20;45.65;98406.25;2228307;80;20900;-82
2022/08/20 11:02:57;;;;;;;13.22;7.40;;;;;;;31.39;44.56;98401.63;2228489;80;21796;-83
2022/08/20 11:05:57;;;;;;;13.38;6.95;;;;;;;31.52;43.68;98392.91;2228064;80;20995;-83
2022/08/20 11:08:58;;;;;;;11.70;6.97;;;;;;;31.73;41.74;98388.99;2227952;80;20998;-82
2022/08/20 11:11:58;;;;;;;11.75;8.45;;;;;;;32.10;41.83;98383.28;2227530;80;20927;-83
2022/08/20 11:14:58;;;;;;;18.07;8.63;;;;;;;32.24;45.30;98377.63;2227555;80;20930;-82
2022/08/20 11:17:59;;;;;;;12.80;8.90;;;;;;;32.26;45.04;98381.05;2226728;80;20939;-81
2022/08/20 11:21:00;;;;;;;13.62;9.18;;;;;;;32.20;44.73;98374.78;2227145;80;20931;-83
2022/08/20 11:24:00;;;;;;;20.17;16.12;;;;;;;32.30;44.68;98363.11;2227238;80;20935;-84
2022/08/20 11:27:00;;;;;;;17.92;11.33;;;;;;;32.42;39.46;98359.86;2227167;80;20940;-82
2022/08/20 11:30:00;;;;;;;12.23;6.15;;;;;;;31.65;38.36;98364.45;2227868;80;20959;-83
2022/08/20 11:33:01;;;;;;;9.60;6.10;;;;;;;31.52;43.18;98359.69;2229129;80;20944;-83
2022/08/20 11:36:01;;;;;;;14.55;5.95;;;;;;;31.75;43.75;98356.00;2228351;79;20923;-83
2022/08/20 11:39:02;;;;;;;11.25;7.25;;;;;;;32.02;44.06;98356.90;2231926;80;20964;-83
2022/08/20 11:42:02;;;;;;;15.25;6.75;;;;;;;31.98;40.42;98366.23;2232123;80;20920;-83
2022/08/20 11:45:03;;;;;;;8.40;6.85;;;;;;;32.07;43.36;98365.47;2231935;80;20952;-82
2022/08/20 11:48:03;;;;;;;15.70;7.80;;;;;;;31.98;44.38;98363.53;2232296;80;20948;-83
2022/08/20 11:51:04;;;;;;;13.40;7.35;;;;;;;31.97;43.86;98370.78;2232153;80;20908;-82
2022/08/20 11:54:04;;;;;;;14.18;8.15;;;;;;;31.90;44.56;98363.31;2232406;80;21327;-83
2022/08/20 11:57:04;;;;;;;15.68;7.92;;;;;;;31.84;43.84;98364.69;2232047;80;20907;-83
2022/08/20 12:00:05;;;;;;;9.23;8.15;;;;;;;31.65;45.61;98357.21;2231716;80;20947;-83
2022/08/20 12:03:05;;;;;;;15.78;8.55;;;;;;;31.39;49.84;98354.43;2231997;80;21727;-83
2022/08/20 12:06:05;;;;;;;15.75;9.08;;;;;;;31.15;50.21;98359.92;2231571;80;21358;-84
2022/08/20 12:09:06;;;;;;;18.20;9.18;;;;;;;30.98;49.62;98354.49;2231400;80;20985;-84
2022/08/20 12:12:06;;;;;;;23.52;9.13;;;;;;;30.96;51.51;98352.91;2231452;80;20931;-84
2022/08/20 12:15:07;;;;;;;14.13;8.45;;;;;;;31.15;51.50;98342.89;2231407;80;21339;-84
2022/08/20 12:18:07;;;;;;;14.47;7.95;;;;;;;31.20;51.32;98345.59;2230878;80;20995;-83
2022/08/20 12:21:07;;;;;;;12.30;8.45;;;;;;;30.98;51.63;98347.76;2231450;80;20943;-83
2022/08/20 12:24:08;;;;;;;11.40;8.58;;;;;;;30.66;53.16;98348.08;2231784;80;20967;-84
2022/08/20 12:27:09;;;;;;;13.83;8.43;;;;;;;30.43;53.17;98345.30;2231266;80;21406;-84
2022/08/20 12:30:09;;;;;;;15.75;9.10;;;;;;;30.25;54.00;98343.99;2231353;80;21410;-83
2022/08/20 12:33:09;;;;;;;11.33;7.97;;;;;;;30.14;53.72;98341.26;2231025;80;20947;-83
2022/08/20 12:36:10;;;;;;;15.88;8.68;;;;;;;30.10;54.37;98339.28;2230951;80;20979;-84
2022/08/20 12:39:10;;;;;;;12.13;8.55;;;;;;;30.15;54.65;98331.34;2230720;80;20967;-84
2022/08/20 12:42:10;;;;;;;15.40;8.70;;;;;;;30.22;54.37;98329.42;2231276;80;20955;-83
2022/08/20 12:45:11;;;;;;;13.70;8.40;;;;;;;30.35;53.28;98328.02;2231122;80;21374;-84
2022/08/20 12:48:11;;;;;;;13.45;8.83;;;;;;;30.34;52.69;98324.93;2230788;80;20955;-83
2022/08/20 12:51:11;;;;;;;12.30;9.18;;;;;;;30.43;52.26;98321.07;2231139;80;20904;-84
2022/08/20 12:54:12;;;;;;;20.05;9.03;;;;;;;30.53;51.50;98321.22;2231345;80;20910;-82
2022/08/20 12:57:13;;;;;;;15.90;8.98;;;;;;;30.63;51.35;98322.25;2231264;80;21067;-83
2022/08/20 13:00:13;;;;;;;13.72;8.50;;;;;;;30.71;51.75;98334.63;2231037;80;20978;-82
2022/08/20 13:03:13;;;;;;;14.28;8.40;;;;;;;30.83;51.96;98339.53;2231094;80;20986;-83
2022/08/20 13:06:14;;;;;;;13.08;8.18;;;;;;;30.87;50.81;98341.50;2230713;78;20967;-83
2022/08/20 13:09:14;;;;;;;16.52;8.33;;;;;;;30.83;51.08;98346.27;2231140;80;21002;-84
2022/08/20 13:12:14;;;;;;;15.28;8.35;;;;;;;30.97;50.30;98346.04;2230944;80;20976;-82
